sensor_id;sensor_type;location;lat;lon;timestamp;pressure;altitude;pressure_sealevel;temperature;humidity
56600;BME280;51832;48.152;11.530;2022-10-16T00:04:33;95531.56;;;18.07;72.86
56600;BME280;51832;48.152;11.530;2022-10-16T00:09:33;95526.25;;;18.02;72.96
56600;BME280;51832;48.152;11.530;2022-10-16T00:14:34;95535.56;;;17.90;73.74
56600;BME280;51832;48.152;11.530;2022-10-16T00:19:34;95528.91;;;18.13;72.47
56600;BME280;51832;48.152;11.530;2022-10-16T00:24:36;95521.97;;;17.91;73.81
56600;BME280;51832;48.152;11.530;2022-10-16T00:29:36;95533.94;;;17.68;73.95
56600;BME280;51832;48.152;11.530;2022-10-16T00:34:37;95534.44;;;17.60;75.09
56600;BME280;51832;48.152;11.530;2022-10-16T00:39:38;95519.03;;;17.77;74.04
56600;BME280;51832;48.152;11.530;2022-10-16T00:49:43;95538.94;;;17.60;74.34
56600;BME280;51832;48.152;11.530;2022-10-16T00:54:46;95533.16;;;17.83;73.05
56600;BME280;51832;48.152;11.530;2022-10-16T00:59:47;95528.09;;;17.92;72.73
56600;BME280;51832;48.152;11.530;2022-10-16T01:04:50;95538.75;;;17.77;73.24
56600;BME280;51832;48.152;11.530;2022-10-16T01:25:52;95559.81;;;18.29;70.96
56600;BME280;51832;48.152;11.530;2022-10-16T01:30:58;95556.88;;;17.90;71.98
56600;BME280;51832;48.152;11.530;2022-10-16T01:36:10;95555.78;;;17.91;72.06
56600;BME280;51832;48.152;11.530;2022-10-16T01:41:17;95549.09;;;17.78;72.49
56600;BME280;51832;48.152;11.530;2022-10-16T01:46:20;95543.66;;;17.32;73.76
56600;BME280;51832;48.152;11.530;2022-10-16T01:51:21;95541.00;;;17.32;74.04
56600;BME280;51832;48.152;11.530;2022-10-16T01:56:25;95542.34;;;17.40;73.85
56600;BME280;51832;48.152;11.530;2022-10-16T02:01:28;95526.97;;;17.57;72.52
56600;BME280;51832;48.152;11.530;2022-10-16T02:06:30;95531.84;;;17.86;71.41
56600;BME280;51832;48.152;11.530;2022-10-16T02:11:30;95526.75;;;17.94;70.89
56600;BME280;51832;48.152;11.530;2022-10-16T02:16:40;95533.56;;;17.39;72.50
56600;BME280;51832;48.152;11.530;2022-10-16T02:21:44;95529.31;;;17.33;73.14
56600;BME280;51832;48.152;11.530;2022-10-16T02:26:54;95526.84;;;17.12;73.57
56600;BME280;51832;48.152;11.530;2022-10-16T02:32:01;95530.09;;;17.39;72.40
56600;BME280;51832;48.152;11.530;2022-10-16T02:37:03;95547.13;;;17.38;71.79
56600;BME280;51832;48.152;11.530;2022-10-16T02:42:12;95553.56;;;17.52;71.68
56600;BME280;51832;48.152;11.530;2022-10-16T02:47:13;95541.06;;;17.48;71.33
56600;BME280;51832;48.152;11.530;2022-10-16T02:52:13;95555.47;;;17.62;71.16
56600;BME280;51832;48.152;11.530;2022-10-16T02:57:14;95560.81;;;17.67;70.29
56600;BME280;51832;48.152;11.530;2022-10-16T03:02:15;95564.78;;;17.64;70.37
56600;BME280;51832;48.152;11.530;2022-10-16T03:07:15;95555.97;;;17.49;70.88
56600;BME280;51832;48.152;11.530;2022-10-16T03:12:16;95544.72;;;17.36;71.30
56600;BME280;51832;48.152;11.530;2022-10-16T03:17:17;95554.06;;;17.44;71.13
56600;BME280;51832;48.152;11.530;2022-10-16T03:22:17;95542.34;;;17.40;70.84
56600;BME280;51832;48.152;11.530;2022-10-16T03:27:18;95549.84;;;17.58;70.07
56600;BME280;51832;48.152;11.530;2022-10-16T03:32:18;95542.69;;;17.64;70.05
56600;BME280;51832;48.152;11.530;2022-10-16T03:37:20;95555.97;;;17.59;70.12
56600;BME280;51832;48.152;11.530;2022-10-16T03:42:20;95553.56;;;17.47;70.18
56600;BME280;51832;48.152;11.530;2022-10-16T03:47:21;95565.81;;;17.48;70.38
56600;BME280;51832;48.152;11.530;2022-10-16T03:52:23;95565.81;;;17.58;70.13
56600;BME280;51832;48.152;11.530;2022-10-16T03:57:24;95560.28;;;17.70;69.23
56600;BME280;51832;48.152;11.530;2022-10-16T04:02:24;95558.91;;;17.62;69.17
56600;BME280;51832;48.152;11.530;2022-10-16T04:07:25;95560.06;;;17.87;67.97
56600;BME280;51832;48.152;11.530;2022-10-16T04:12:26;95558.47;;;18.16;66.89
56600;BME280;51832;48.152;11.530;2022-10-16T04:17:27;95558.72;;;18.20;66.77
56600;BME280;51832;48.152;11.530;2022-10-16T04:22:27;95564.59;;;18.17;67.34
56600;BME280;51832;48.152;11.530;2022-10-16T04:27:28;95559.00;;;17.98;67.82
56600;BME280;51832;48.152;11.530;2022-10-16T04:32:31;95568.31;;;18.36;66.07
56600;BME280;51832;48.152;11.530;2022-10-16T04:37:31;95569.66;;;18.08;67.29
56600;BME280;51832;48.152;11.530;2022-10-16T04:42:32;95572.31;;;18.33;66.26
56600;BME280;51832;48.152;11.530;2022-10-16T04:47:33;95577.91;;;18.17;66.57
56600;BME280;51832;48.152;11.530;2022-10-16T04:52:33;95563.50;;;17.82;67.62
56600;BME280;51832;48.152;11.530;2022-10-16T04:57:34;95557.09;;;17.73;68.59
56600;BME280;51832;48.152;11.530;2022-10-16T05:02:35;95554.72;;;17.82;68.32
56600;BME280;51832;48.152;11.530;2022-10-16T05:07:35;95565.78;;;17.53;69.16
56600;BME280;51832;48.152;11.530;2022-10-16T05:12:36;95566.56;;;17.44;69.55
56600;BME280;51832;48.152;11.530;2022-10-16T05:17:36;95566.44;;;17.86;67.95
56600;BME280;51832;48.152;11.530;2022-10-16T05:22:37;95553.34;;;17.64;68.29
56600;BME280;51832;48.152;11.530;2022-10-16T05:27:37;95577.28;;;17.64;68.58
56600;BME280;51832;48.152;11.530;2022-10-16T05:32:38;95576.50;;;17.68;68.13
56600;BME280;51832;48.152;11.530;2022-10-16T05:37:38;95576.59;;;18.04;66.71
56600;BME280;51832;48.152;11.530;2022-10-16T05:42:39;95579.22;;;18.19;65.75
56600;BME280;51832;48.152;11.530;2022-10-16T05:47:40;95585.63;;;17.98;66.69
56600;BME280;51832;48.152;11.530;2022-10-16T05:52:41;95601.63;;;18.23;65.83
56600;BME280;51832;48.152;11.530;2022-10-16T05:57:42;95593.06;;;17.96;66.69
56600;BME280;51832;48.152;11.530;2022-10-16T06:02:42;95601.63;;;18.74;72.51
56600;BME280;51832;48.152;11.530;2022-10-16T06:07:43;95607.31;;;19.37;68.28
56600;BME280;51832;48.152;11.530;2022-10-16T06:12:43;95607.19;;;19.72;64.80
56600;BME280;51832;48.152;11.530;2022-10-16T06:17:44;95613.69;;;20.05;61.50
56600;BME280;51832;48.152;11.530;2022-10-16T06:22:44;95614.09;;;20.22;63.63
56600;BME280;51832;48.152;11.530;2022-10-16T06:27:45;95629.94;;;19.55;60.64
56600;BME280;51832;48.152;11.530;2022-10-16T06:32:45;95629.78;;;19.15;61.85
56600;BME280;51832;48.152;11.530;2022-10-16T06:37:46;95630.66;;;18.91;62.73
56600;BME280;51832;48.152;11.530;2022-10-16T06:42:46;95643.44;;;18.89;62.79
56600;BME280;51832;48.152;11.530;2022-10-16T06:47:47;95648.25;;;18.87;62.81
56600;BME280;51832;48.152;11.530;2022-10-16T06:52:47;95646.41;;;18.82;62.85
56600;BME280;51832;48.152;11.530;2022-10-16T06:57:48;95664.53;;;18.80;62.74
56600;BME280;51832;48.152;11.530;2022-10-16T07:02:49;95666.66;;;18.83;62.84
56600;BME280;51832;48.152;11.530;2022-10-16T07:07:50;95668.66;;;17.95;65.42
56600;BME280;51832;48.152;11.530;2022-10-16T07:12:50;95671.81;;;17.71;66.43
56600;BME280;51832;48.152;11.530;2022-10-16T07:17:51;95675.63;;;17.44;68.00
56600;BME280;51832;48.152;11.530;2022-10-16T07:22:52;95675.19;;;18.80;63.68
56600;BME280;51832;48.152;11.530;2022-10-16T07:27:52;95689.84;;;18.77;63.71
56600;BME280;51832;48.152;11.530;2022-10-16T07:32:56;95697.53;;;19.14;62.46
56600;BME280;51832;48.152;11.530;2022-10-16T07:37:56;95697.75;;;19.43;61.09
56600;BME280;51832;48.152;11.530;2022-10-16T07:42:57;95709.28;;;19.24;62.04
56600;BME280;51832;48.152;11.530;2022-10-16T07:47:57;95711.38;;;19.42;61.73
56600;BME280;51832;48.152;11.530;2022-10-16T07:52:58;95717.34;;;20.03;59.21
56600;BME280;51832;48.152;11.530;2022-10-16T07:57:58;95724.47;;;20.18;58.65
56600;BME280;51832;48.152;11.530;2022-10-16T08:02:59;95735.75;;;20.59;57.85
56600;BME280;51832;48.152;11.530;2022-10-16T08:08:01;95731.53;;;21.21;56.64
56600;BME280;51832;48.152;11.530;2022-10-16T08:13:02;95730.69;;;20.91;56.34
56600;BME280;51832;48.152;11.530;2022-10-16T08:18:04;95735.88;;;21.12;56.13
56600;BME280;51832;48.152;11.530;2022-10-16T08:23:05;95734.22;;;21.50;55.07
56600;BME280;51832;48.152;11.530;2022-10-16T08:28:08;95738.13;;;21.34;55.08
56600;BME280;51832;48.152;11.530;2022-10-16T08:33:10;95745.53;;;21.71;53.80
56600;BME280;51832;48.152;11.530;2022-10-16T08:38:11;95751.69;;;21.71;52.81
56600;BME280;51832;48.152;11.530;2022-10-16T08:53:46;95765.25;;;22.46;49.42
56600;BME280;51832;48.152;11.530;2022-10-16T08:58:49;95771.97;;;22.86;48.88
56600;BME280;51832;48.152;11.530;2022-10-16T09:19:48;95775.34;;;23.89;47.32
56600;BME280;51832;48.152;11.530;2022-10-16T09:24:51;95762.59;;;23.81;47.01
56600;BME280;51832;48.152;11.530;2022-10-16T09:29:52;95780.44;;;23.77;47.71
56600;BME280;51832;48.152;11.530;2022-10-16T09:34:55;95777.34;;;23.84;45.57
56600;BME280;51832;48.152;11.530;2022-10-16T09:39:58;95778.31;;;23.74;45.89
56600;BME280;51832;48.152;11.530;2022-10-16T09:44:59;95789.31;;;24.19;44.62
56600;BME280;51832;48.152;11.530;2022-10-16T09:50:02;95793.78;;;24.23;44.64
56600;BME280;51832;48.152;11.530;2022-10-16T09:55:16;95785.41;;;24.52;44.47
56600;BME280;51832;48.152;11.530;2022-10-16T10:00:18;95801.59;;;24.74;44.33
56600;BME280;51832;48.152;11.530;2022-10-16T10:05:27;95792.59;;;24.43;41.49
56600;BME280;51832;48.152;11.530;2022-10-16T10:10:30;95798.34;;;24.64;40.74
56600;BME280;51832;48.152;11.530;2022-10-16T10:15:34;95794.03;;;24.63;40.37
56600;BME280;51832;48.152;11.530;2022-10-16T10:20:41;95794.69;;;24.96;39.91
56600;BME280;51832;48.152;11.530;2022-10-16T10:25:55;95801.38;;;25.21;39.01
56600;BME280;51832;48.152;11.530;2022-10-16T10:31:14;95800.28;;;24.99;37.85
56600;BME280;51832;48.152;11.530;2022-10-16T10:36:28;95800.13;;;25.40;37.82
56600;BME280;51832;48.152;11.530;2022-10-16T10:57:09;95784.94;;;26.54;36.17
56600;BME280;51832;48.152;11.530;2022-10-16T11:02:32;95794.03;;;26.84;36.35
56600;BME280;51832;48.152;11.530;2022-10-16T11:07:39;95797.41;;;25.94;37.33
56600;BME280;51832;48.152;11.530;2022-10-16T11:12:48;95791.25;;;25.71;39.25
56600;BME280;51832;48.152;11.530;2022-10-16T11:18:16;95798.03;;;25.37;37.90
56600;BME280;51832;48.152;11.530;2022-10-16T11:23:26;95788.31;;;25.59;37.49
56600;BME280;51832;48.152;11.530;2022-10-16T11:28:45;95795.81;;;25.62;37.08
56600;BME280;51832;48.152;11.530;2022-10-16T11:39:24;95794.25;;;26.31;34.30
56600;BME280;51832;48.152;11.530;2022-10-16T11:45:24;95782.41;;;26.49;32.69
56600;BME280;51832;48.152;11.530;2022-10-16T11:50:13;95787.16;;;26.52;32.29
56600;BME280;51832;48.152;11.530;2022-10-16T11:55:23;95781.44;;;26.45;35.40
56600;BME280;51832;48.152;11.530;2022-10-16T12:00:31;95790.50;;;26.58;33.09
56600;BME280;51832;48.152;11.530;2022-10-16T12:06:06;95788.94;;;26.74;33.16
56600;BME280;51832;48.152;11.530;2022-10-16T12:16:23;95783.28;;;27.02;33.52
56600;BME280;51832;48.152;11.530;2022-10-16T12:21:30;95789.13;;;26.95;33.88
56600;BME280;51832;48.152;11.530;2022-10-16T12:26:38;95779.91;;;27.31;33.53
56600;BME280;51832;48.152;11.530;2022-10-16T12:31:48;95779.94;;;28.62;31.62
56600;BME280;51832;48.152;11.530;2022-10-16T12:36:49;95776.69;;;28.48;31.62
56600;BME280;51832;48.152;11.530;2022-10-16T12:42:04;95785.13;;;28.46;30.92
56600;BME280;51832;48.152;11.530;2022-10-16T12:47:19;95778.44;;;29.35;30.06
56600;BME280;51832;48.152;11.530;2022-10-16T12:52:34;95769.47;;;29.02;30.94
56600;BME280;51832;48.152;11.530;2022-10-16T13:24:31;95768.50;;;30.18;26.50
56600;BME280;51832;48.152;11.530;2022-10-16T13:29:36;95776.63;;;30.66;25.76
56600;BME280;51832;48.152;11.530;2022-10-16T13:34:44;95784.09;;;30.45;26.41
56600;BME280;51832;48.152;11.530;2022-10-16T13:39:45;95779.47;;;30.70;26.72
56600;BME280;51832;48.152;11.530;2022-10-16T13:44:49;95773.81;;;30.63;25.71
56600;BME280;51832;48.152;11.530;2022-10-16T13:50:09;95780.44;;;30.90;24.98
56600;BME280;51832;48.152;11.530;2022-10-16T13:55:12;95798.69;;;30.53;24.35
56600;BME280;51832;48.152;11.530;2022-10-16T14:00:25;95787.66;;;31.10;23.91
56600;BME280;51832;48.152;11.530;2022-10-16T14:05:30;95790.28;;;32.06;22.58
56600;BME280;51832;48.152;11.530;2022-10-16T14:10:31;95801.34;;;33.88;20.97
56600;BME280;51832;48.152;11.530;2022-10-16T14:15:35;95796.28;;;36.59;18.22
56600;BME280;51832;48.152;11.530;2022-10-16T14:20:36;95798.22;;;38.68;16.63
56600;BME280;51832;48.152;11.530;2022-10-16T14:25:37;95794.22;;;40.58;14.07
56600;BME280;51832;48.152;11.530;2022-10-16T14:30:37;95793.41;;;41.70;13.28
56600;BME280;51832;48.152;11.530;2022-10-16T14:35:39;95797.38;;;41.99;13.59
56600;BME280;51832;48.152;11.530;2022-10-16T14:40:47;95790.38;;;42.92;12.68
56600;BME280;51832;48.152;11.530;2022-10-16T14:45:55;95790.31;;;41.68;12.89
56600;BME280;51832;48.152;11.530;2022-10-16T14:50:57;95786.00;;;40.51;14.40
56600;BME280;51832;48.152;11.530;2022-10-16T14:55:57;95801.34;;;38.24;16.68
56600;BME280;51832;48.152;11.530;2022-10-16T15:00:57;95793.69;;;35.89;18.07
56600;BME280;51832;48.152;11.530;2022-10-16T15:05:58;95793.78;;;35.29;19.78
56600;BME280;51832;48.152;11.530;2022-10-16T15:10:58;95801.97;;;33.81;21.17
56600;BME280;51832;48.152;11.530;2022-10-16T15:15:58;95804.13;;;32.01;23.35
56600;BME280;51832;48.152;11.530;2022-10-16T15:20:59;95797.03;;;32.43;23.05
56600;BME280;51832;48.152;11.530;2022-10-16T15:25:59;95805.34;;;30.92;25.86
56600;BME280;51832;48.152;11.530;2022-10-16T15:31:00;95805.84;;;32.21;25.00
56600;BME280;51832;48.152;11.530;2022-10-16T15:36:01;95808.28;;;32.10;25.67
56600;BME280;51832;48.152;11.530;2022-10-16T15:41:02;95808.34;;;31.83;26.49
56600;BME280;51832;48.152;11.530;2022-10-16T15:46:04;95814.28;;;31.72;27.20
56600;BME280;51832;48.152;11.530;2022-10-16T15:51:07;95817.38;;;29.85;29.94
56600;BME280;51832;48.152;11.530;2022-10-16T15:56:09;95821.06;;;30.01;29.94
56600;BME280;51832;48.152;11.530;2022-10-16T16:01:10;95828.91;;;29.49;31.25
56600;BME280;51832;48.152;11.530;2022-10-16T16:06:13;95830.06;;;29.60;31.15
56600;BME280;51832;48.152;11.530;2022-10-16T16:11:15;95830.53;;;29.62;30.91
56600;BME280;51832;48.152;11.530;2022-10-16T16:16:16;95829.50;;;30.57;30.05
56600;BME280;51832;48.152;11.530;2022-10-16T16:21:17;95836.69;;;30.16;30.45
56600;BME280;51832;48.152;11.530;2022-10-16T16:26:25;95833.19;;;29.83;31.52
56600;BME280;51832;48.152;11.530;2022-10-16T16:31:29;95841.13;;;28.92;33.45
56600;BME280;51832;48.152;11.530;2022-10-16T16:36:30;95849.03;;;28.97;33.73
56600;BME280;51832;48.152;11.530;2022-10-16T16:41:30;95851.09;;;28.80;33.94
56600;BME280;51832;48.152;11.530;2022-10-16T16:46:32;95854.91;;;28.41;35.04
56600;BME280;51832;48.152;11.530;2022-10-16T16:51:33;95862.16;;;28.19;35.56
56600;BME280;51832;48.152;11.530;2022-10-16T16:56:34;95868.97;;;28.17;35.70
56600;BME280;51832;48.152;11.530;2022-10-16T17:01:34;95876.84;;;28.01;36.17
56600;BME280;51832;48.152;11.530;2022-10-16T17:06:35;95872.22;;;27.93;36.99
56600;BME280;51832;48.152;11.530;2022-10-16T17:11:35;95895.28;;;27.90;36.81
56600;BME280;51832;48.152;11.530;2022-10-16T17:16:37;95893.91;;;27.67;37.19
56600;BME280;51832;48.152;11.530;2022-10-16T17:21:38;95888.19;;;27.69;37.20
56600;BME280;51832;48.152;11.530;2022-10-16T17:26:39;95900.06;;;27.16;38.42
56600;BME280;51832;48.152;11.530;2022-10-16T17:31:42;95899.25;;;27.07;38.62
56600;BME280;51832;48.152;11.530;2022-10-16T17:36:43;95916.06;;;26.95;38.88
56600;BME280;51832;48.152;11.530;2022-10-16T17:41:46;95920.75;;;26.81;38.98
56600;BME280;51832;48.152;11.530;2022-10-16T17:46:49;95921.66;;;26.59;39.70
56600;BME280;51832;48.152;11.530;2022-10-16T17:51:52;95930.06;;;26.66;39.44
56600;BME280;51832;48.152;11.530;2022-10-16T17:56:52;95938.63;;;26.51;40.29
56600;BME280;51832;48.152;11.530;2022-10-16T18:01:53;95942.25;;;26.46;40.68
56600;BME280;51832;48.152;11.530;2022-10-16T18:06:53;95944.47;;;26.22;40.99
56600;BME280;51832;48.152;11.530;2022-10-16T18:11:59;95944.78;;;26.20;41.15
56600;BME280;51832;48.152;11.530;2022-10-16T18:16:59;95944.16;;;26.01;41.56
56600;BME280;51832;48.152;11.530;2022-10-16T18:22:00;95951.09;;;25.94;42.17
56600;BME280;51832;48.152;11.530;2022-10-16T18:27:00;95960.34;;;25.79;42.88
56600;BME280;51832;48.152;11.530;2022-10-16T18:32:01;95959.47;;;25.70;43.17
56600;BME280;51832;48.152;11.530;2022-10-16T18:37:01;95955.78;;;24.89;45.19
56600;BME280;51832;48.152;11.530;2022-10-16T18:42:02;95960.91;;;25.04;45.35
56600;BME280;51832;48.152;11.530;2022-10-16T18:47:03;95966.75;;;24.78;46.04
56600;BME280;51832;48.152;11.530;2022-10-16T18:52:04;95965.19;;;25.05;45.53
56600;BME280;51832;48.152;11.530;2022-10-16T18:57:04;95972.69;;;24.94;45.65
56600;BME280;51832;48.152;11.530;2022-10-16T19:02:05;95977.16;;;24.71;46.23
56600;BME280;51832;48.152;11.530;2022-10-16T19:07:06;95977.16;;;24.71;46.55
56600;BME280;51832;48.152;11.530;2022-10-16T19:12:07;95975.25;;;24.86;45.99
56600;BME280;51832;48.152;11.530;2022-10-16T19:17:07;95981.53;;;24.81;46.09
56600;BME280;51832;48.152;11.530;2022-10-16T19:22:08;95985.50;;;24.56;47.14
56600;BME280;51832;48.152;11.530;2022-10-16T19:27:13;95993.28;;;24.58;47.30
56600;BME280;51832;48.152;11.530;2022-10-16T19:32:14;95997.13;;;24.38;47.84
56600;BME280;51832;48.152;11.530;2022-10-16T19:37:14;96008.91;;;23.91;49.54
56600;BME280;51832;48.152;11.530;2022-10-16T19:42:14;96003.59;;;23.86;49.81
56600;BME280;51832;48.152;11.530;2022-10-16T19:47:15;96005.63;;;23.56;51.04
56600;BME280;51832;48.152;11.530;2022-10-16T19:52:18;96011.34;;;23.50;51.17
56600;BME280;51832;48.152;11.530;2022-10-16T19:57:21;96022.09;;;23.07;51.96
56600;BME280;51832;48.152;11.530;2022-10-16T20:02:22;96024.81;;;23.02;52.72
56600;BME280;51832;48.152;11.530;2022-10-16T20:07:23;96025.53;;;23.31;51.93
56600;BME280;51832;48.152;11.530;2022-10-16T20:12:24;96029.16;;;23.22;52.54
56600;BME280;51832;48.152;11.530;2022-10-16T20:17:24;96038.22;;;23.26;51.98
56600;BME280;51832;48.152;11.530;2022-10-16T20:22:25;96038.00;;;23.22;52.15
56600;BME280;51832;48.152;11.530;2022-10-16T20:27:25;96044.66;;;22.82;53.16
56600;BME280;51832;48.152;11.530;2022-10-16T20:32:28;96049.09;;;22.63;54.47
56600;BME280;51832;48.152;11.530;2022-10-16T20:37:29;96049.19;;;22.53;54.77
56600;BME280;51832;48.152;11.530;2022-10-16T20:42:29;96062.00;;;22.56;54.82
56600;BME280;51832;48.152;11.530;2022-10-16T20:47:30;96049.50;;;22.46;55.10
56600;BME280;51832;48.152;11.530;2022-10-16T20:52:33;96033.13;;;22.48;54.41
56600;BME280;51832;48.152;11.530;2022-10-16T20:57:34;96053.13;;;22.31;55.57
56600;BME280;51832;48.152;11.530;2022-10-16T21:02:35;96062.09;;;22.17;55.83
56600;BME280;51832;48.152;11.530;2022-10-16T21:07:35;96053.53;;;22.44;54.60
56600;BME280;51832;48.152;11.530;2022-10-16T21:12:36;96055.53;;;22.62;54.29
56600;BME280;51832;48.152;11.530;2022-10-16T21:17:36;96065.94;;;22.68;54.07
56600;BME280;51832;48.152;11.530;2022-10-16T21:22:37;96071.25;;;22.74;53.70
56600;BME280;51832;48.152;11.530;2022-10-16T21:27:39;96059.81;;;22.63;53.42
56600;BME280;51832;48.152;11.530;2022-10-16T21:32:39;96057.13;;;22.63;53.26
56600;BME280;51832;48.152;11.530;2022-10-16T21:37:40;96074.72;;;22.74;53.22
56600;BME280;51832;48.152;11.530;2022-10-16T21:42:40;96060.59;;;22.68;53.51
56600;BME280;51832;48.152;11.530;2022-10-16T21:47:41;96066.50;;;22.65;53.42
56600;BME280;51832;48.152;11.530;2022-10-16T21:52:41;96065.88;;;22.45;54.17
56600;BME280;51832;48.152;11.530;2022-10-16T21:57:42;96068.28;;;22.46;54.08
56600;BME280;51832;48.152;11.530;2022-10-16T22:02:42;96068.63;;;22.40;54.37
56600;BME280;51832;48.152;11.530;2022-10-16T22:07:43;96061.22;;;22.26;55.18
56600;BME280;51832;48.152;11.530;2022-10-16T22:12:43;96054.47;;;22.29;55.10
56600;BME280;51832;48.152;11.530;2022-10-16T22:17:44;96055.19;;;21.61;57.42
56600;BME280;51832;48.152;11.530;2022-10-16T22:22:44;96059.13;;;21.74;57.20
56600;BME280;51832;48.152;11.530;2022-10-16T22:27:45;96044.75;;;21.60;56.72
56600;BME280;51832;48.152;11.530;2022-10-16T22:32:45;96049.00;;;21.02;58.26
56600;BME280;51832;48.152;11.530;2022-10-16T22:37:46;96063.47;;;21.01;58.21
56600;BME280;51832;48.152;11.530;2022-10-16T22:42:46;96052.78;;;20.85;58.25
56600;BME280;51832;48.152;11.530;2022-10-16T22:47:47;96069.34;;;20.98;58.15
56600;BME280;51832;48.152;11.530;2022-10-16T22:52:47;96060.47;;;21.07;57.30
56600;BME280;51832;48.152;11.530;2022-10-16T22:57:48;96073.03;;;21.17;57.38
56600;BME280;51832;48.152;11.530;2022-10-16T23:02:48;96066.09;;;21.06;56.89
56600;BME280;51832;48.152;11.530;2022-10-16T23:07:49;96062.16;;;20.83;57.85
56600;BME280;51832;48.152;11.530;2022-10-16T23:12:49;96067.81;;;20.56;58.28
56600;BME280;51832;48.152;11.530;2022-10-16T23:17:50;96074.53;;;20.48;58.57
56600;BME280;51832;48.152;11.530;2022-10-16T23:22:51;96065.44;;;20.49;58.72
56600;BME280;51832;48.152;11.530;2022-10-16T23:27:54;96072.63;;;20.59;58.29
56600;BME280;51832;48.152;11.530;2022-10-16T23:32:55;96080.13;;;20.52;57.88
56600;BME280;51832;48.152;11.530;2022-10-16T23:37:56;96082.78;;;20.52;57.95
56600;BME280;51832;48.152;11.530;2022-10-16T23:42:57;96077.19;;;20.53;57.54
56600;BME280;51832;48.152;11.530;2022-10-16T23:47:57;96085.22;;;20.48;56.67
56600;BME280;51832;48.152;11.530;2022-10-16T23:52:58;96082.78;;;20.32;57.18
56600;BME280;51832;48.152;11.530;2022-10-16T23:57:58;96082.78;;;20.37;56.88
